Time;durP1;ratioP1;P1;durP2;ratioP2;P2;SDS_P1;SDS_P2;PMS_P1;PMS_P2;Temp;Humidity;BMP_temperature;BMP_pressure;BME280_temperature;BME280_humidity;BME280_pressure;Samples;Min_cycle;Max_cycle;Signal;HPM_P1;HPM_P2
2022/11/01 00:01:44;;;;;;;4.63;1.70;;;;;;;13.18;89.58;95455.16;4282970;33;20271;-62
2022/11/01 00:04:11;;;;;;;1.40;1.30;;;;;;;13.05;89.81;95452.25;4295791;33;20202;-62
2022/11/01 00:06:43;;;;;;;2.60;2.03;;;;;;;13.09;89.28;95457.75;4294245;33;20202;-62
2022/11/01 00:09:10;;;;;;;1.70;1.67;;;;;;;13.14;89.00;95468.25;4309524;33;20196;-62
2022/11/01 00:11:37;;;;;;;2.87;1.93;;;;;;;13.10;89.14;95523.22;4298142;33;20194;-62
2022/11/01 00:14:03;;;;;;;1.53;1.53;;;;;;;12.88;89.97;95483.31;4293380;33;20268;-62
2022/11/01 00:16:31;;;;;;;1.37;1.37;;;;;;;12.95;90.04;95521.72;4276059;33;20191;-62
2022/11/01 00:18:57;;;;;;;1.40;1.40;;;;;;;12.89;91.13;95496.28;4279645;33;20196;-62
2022/11/01 00:21:24;;;;;;;8.63;1.67;;;;;;;12.84;90.98;95520.41;4296920;33;20229;-62
2022/11/01 00:23:50;;;;;;;8.00;2.13;;;;;;;12.83;91.35;95504.72;4290598;33;20225;-62
2022/11/01 00:26:21;;;;;;;3.80;2.87;;;;;;;12.77;91.35;95505.91;4279218;33;20206;-63
2022/11/01 00:28:47;;;;;;;1.30;1.30;;;;;;;12.78;91.45;95518.94;4302464;33;20224;-63
2022/11/01 00:31:15;;;;;;;2.13;1.97;;;;;;;13.00;91.05;95502.97;4306530;33;20186;-62
2022/11/01 00:33:42;;;;;;;3.37;1.73;;;;;;;13.09;90.70;95514.44;4291252;33;20310;-62
2022/11/01 00:36:10;;;;;;;1.73;1.73;;;;;;;13.11;90.74;95506.16;4300336;33;20190;-62
2022/11/01 00:38:36;;;;;;;2.20;1.73;;;;;;;13.06;91.36;95496.44;4309221;33;20189;-62
2022/11/01 00:41:05;;;;;;;3.00;2.23;;;;;;;13.15;91.16;95504.47;4299833;33;20273;-62
2022/11/01 00:43:32;;;;;;;2.20;2.10;;;;;;;13.13;91.06;95495.19;4324687;33;20187;-62
2022/11/01 00:46:03;;;;;;;1.43;1.33;;;;;;;13.23;90.75;95494.97;4315542;33;20257;-62
2022/11/01 00:48:30;;;;;;;1.67;1.57;;;;;;;13.23;90.85;95492.31;4271001;33;20236;-62
2022/11/01 00:50:57;;;;;;;1.53;1.43;;;;;;;13.28;91.01;95492.19;4298639;33;20185;-62
2022/11/01 00:53:22;;;;;;;1.83;1.43;;;;;;;13.29;90.38;95488.44;4335126;32;20263;-62
2022/11/01 00:55:49;;;;;;;1.73;1.63;;;;;;;13.28;90.50;95487.66;4319817;32;20185;-62
2022/11/01 00:58:16;;;;;;;1.17;1.17;;;;;;;13.35;90.44;95487.19;4316575;33;20235;-63
2022/11/01 01:01:04;;;;;;;1.70;1.60;;;;;;;13.37;90.24;95483.13;4314097;33;20260;-62
2022/11/01 01:03:31;;;;;;;2.33;2.23;;;;;;;13.34;89.90;95490.94;4323894;33;20181;-62
2022/11/01 01:05:58;;;;;;;1.20;1.20;;;;;;;13.15;90.33;95493.00;4314902;33;20201;-62
2022/11/01 01:08:26;;;;;;;3.40;2.17;;;;;;;13.02;91.09;95484.03;4329381;33;20224;-62
2022/11/01 01:10:53;;;;;;;1.53;1.43;;;;;;;13.03;91.30;95486.38;4300179;32;20235;-62
2022/11/01 01:13:20;;;;;;;1.63;0.83;;;;;;;13.04;91.16;95487.94;4342049;32;20186;-62
2022/11/01 01:15:46;;;;;;;1.30;1.20;;;;;;;13.04;90.99;95487.94;4322216;32;20226;-62
2022/11/01 01:18:12;;;;;;;1.00;1.00;;;;;;;13.20;89.83;95487.59;4330487;33;20194;-62
2022/11/01 01:20:40;;;;;;;5.73;1.73;;;;;;;13.18;89.70;95487.91;4309155;32;20208;-62
2022/11/01 01:23:05;;;;;;;1.67;1.57;;;;;;;13.28;89.07;95484.19;4304144;32;20270;-62
2022/11/01 01:25:32;;;;;;;1.17;1.17;;;;;;;13.13;89.49;95481.87;4283141;33;20344;-62
2022/11/01 01:27:58;;;;;;;1.60;1.50;;;;;;;13.08;89.79;95482.81;4322952;32;20186;-62
2022/11/01 01:30:23;;;;;;;2.07;1.83;;;;;;;13.16;89.63;95479.41;4341028;32;20194;-62
2022/11/01 01:32:49;;;;;;;3.63;1.33;;;;;;;13.16;89.12;95483.97;4329879;32;20207;-62
2022/11/01 01:35:14;;;;;;;1.67;1.57;;;;;;;13.12;89.58;95482.97;4332504;32;20188;-62
2022/11/01 01:37:40;;;;;;;1.30;1.30;;;;;;;13.09;89.89;95479.06;4344911;32;20189;-62
2022/11/01 01:40:07;;;;;;;1.03;1.03;;;;;;;13.06;89.89;95475.13;4316144;32;20281;-62
2022/11/01 01:42:56;;;;;;;1.43;1.37;;;;;;;13.05;89.81;95468.22;4318285;32;20293;-62
2022/11/01 01:45:36;;;;;;;0.67;0.67;;;;;;;12.99;90.02;95466.75;4325021;32;20216;-63
2022/11/01 01:48:21;;;;;;;3.13;1.87;;;;;;;12.91;89.46;95466.69;4317236;33;20190;-62
2022/11/01 01:51:04;;;;;;;1.87;1.40;;;;;;;12.97;89.24;95474.28;4310716;32;20185;-63
2022/11/01 01:53:36;;;;;;;1.17;1.07;;;;;;;13.00;89.19;95464.88;4320656;33;20182;-62
2022/11/01 01:56:13;;;;;;;1.20;1.20;;;;;;;12.98;88.75;95461.75;4328236;32;20182;-62
2022/11/01 01:59:07;;;;;;;1.30;1.30;;;;;;;12.87;89.29;95463.88;4336377;32;20204;-62
2022/11/01 02:01:38;;;;;;;0.80;0.80;;;;;;;13.05;88.35;95470.88;4312036;33;20182;-62
2022/11/01 02:04:11;;;;;;;1.80;1.70;;;;;;;13.07;88.31;95466.03;4305559;32;20312;-62
2022/11/01 02:06:41;;;;;;;1.80;1.70;;;;;;;13.00;88.56;95463.00;4314989;33;20281;-62
2022/11/01 02:09:08;;;;;;;1.03;1.03;;;;;;;13.07;87.82;95466.03;4327451;32;20181;-62
2022/11/01 02:11:35;;;;;;;2.90;1.93;;;;;;;13.00;87.68;95468.34;4308943;33;20268;-62
2022/11/01 02:14:02;;;;;;;1.70;1.60;;;;;;;12.96;88.55;95462.03;4334931;32;20195;-62
2022/11/01 02:16:56;;;;;;;0.70;0.70;;;;;;;12.90;88.28;95460.59;4317735;33;20182;-62
2022/11/01 02:20:04;;;;;;;2.67;1.43;;;;;;;12.86;88.22;95461.53;4342019;32;20199;-62
2022/11/01 02:23:10;;;;;;;1.27;1.27;;;;;;;12.95;88.27;95463.12;4344821;32;20248;-62
2022/11/01 02:26:26;;;;;;;1.47;1.30;;;;;;;12.93;87.75;95472.50;4324874;32;20178;-62
2022/11/01 02:29:13;;;;;;;0.90;0.90;;;;;;;12.99;87.52;95466.75;4334918;32;20182;-62
2022/11/01 02:32:01;;;;;;;3.00;1.43;;;;;;;12.81;88.94;95467.75;4284982;32;20259;-62
2022/11/01 02:34:37;;;;;;;3.50;1.70;;;;;;;12.81;88.99;95473.06;4293506;32;20273;-62
2022/11/01 02:37:37;;;;;;;1.53;1.30;;;;;;;12.85;88.88;95468.72;4311022;33;20182;-62
2022/11/01 02:40:15;;;;;;;0.83;0.83;;;;;;;12.86;88.22;95474.84;4326283;32;20211;-62
2022/11/01 02:42:59;;;;;;;0.87;0.87;;;;;;;12.71;87.89;95481.28;4306713;33;20311;-62
2022/11/01 02:45:50;;;;;;;1.30;1.20;;;;;;;12.83;87.25;95484.22;4324013;32;20215;-62
2022/11/01 02:48:21;;;;;;;1.47;1.37;;;;;;;12.73;87.01;95493.22;4315397;33;20196;-63
2022/11/01 02:50:54;;;;;;;1.67;1.57;;;;;;;12.65;86.44;95487.84;4294492;33;20220;-62
2022/11/01 02:53:22;;;;;;;13.97;1.70;;;;;;;12.60;86.16;95483.41;4337327;32;20264;-62
2022/11/01 02:55:55;;;;;;;0.73;0.73;;;;;;;12.52;85.98;95483.34;4315800;33;20170;-62
2022/11/01 02:58:27;;;;;;;0.97;0.83;;;;;;;12.72;85.17;95482.88;4321072;32;20189;-62
2022/11/01 03:00:55;;;;;;;1.80;1.70;;;;;;;12.77;84.61;95482.75;4327403;32;20193;-63
2022/11/01 03:03:32;;;;;;;3.40;2.17;;;;;;;12.68;85.09;95472.03;4327840;32;20241;-62
2022/11/01 03:06:22;;;;;;;5.60;2.23;;;;;;;12.65;84.95;95471.88;4327533;32;20224;-62
2022/11/01 03:08:53;;;;;;;1.63;1.53;;;;;;;12.68;84.76;95476.56;4327729;32;20186;-62
2022/11/01 03:11:56;;;;;;;1.13;1.13;;;;;;;12.50;85.20;95472.22;4319808;33;20194;-63
2022/11/01 03:14:40;;;;;;;7.00;1.70;;;;;;;12.53;85.52;95474.28;4321950;32;20189;-62
2022/11/01 03:17:13;;;;;;;1.80;1.70;;;;;;;12.77;84.21;95476.63;4332386;32;20200;-62
2022/11/01 03:19:48;;;;;;;2.50;1.50;;;;;;;12.68;84.90;95480.00;4307615;33;20261;-62
2022/11/01 03:22:37;;;;;;;2.20;1.70;;;;;;;12.63;84.96;95490.81;4313095;33;20236;-62
2022/11/01 03:25:45;;;;;;;1.63;1.10;;;;;;;12.53;85.08;95492.91;4312462;33;20178;-62
2022/11/01 03:28:59;;;;;;;1.43;1.33;;;;;;;12.50;85.23;95498.81;4321826;32;20231;-62
2022/11/01 03:31:31;;;;;;;1.03;0.97;;;;;;;12.52;86.17;95492.09;4269902;33;20275;-62
2022/11/01 03:34:04;;;;;;;1.40;1.13;;;;;;;12.50;86.28;95493.50;4258482;33;20186;-62
2022/11/01 03:36:38;;;;;;;5.33;1.87;;;;;;;12.39;85.58;95496.41;4264572;33;20219;-62
2022/11/01 03:39:35;;;;;;;1.70;1.60;;;;;;;12.50;85.38;95501.47;4284633;33;20289;-62
2022/11/01 03:42:07;;;;;;;1.70;1.60;;;;;;;12.63;84.78;95503.31;4267279;33;20197;-62
2022/11/01 03:44:42;;;;;;;2.83;1.43;;;;;;;12.46;85.36;95500.53;4278409;33;20201;-62
2022/11/01 03:47:08;;;;;;;1.73;1.63;;;;;;;12.55;84.79;95510.13;4270173;33;20323;-62
2022/11/01 03:49:36;;;;;;;1.30;1.20;;;;;;;12.46;85.04;95517.28;4278563;33;20265;-62
2022/11/01 03:52:10;;;;;;;2.37;1.47;;;;;;;12.56;85.02;95521.56;4275310;33;20182;-62
2022/11/01 03:54:35;;;;;;;1.03;1.00;;;;;;;12.47;85.44;95510.84;4265641;33;20194;-62
2022/11/01 03:57:02;;;;;;;1.23;1.13;;;;;;;12.49;84.82;95518.53;4313840;32;20199;-62
2022/11/01 03:59:28;;;;;;;0.40;0.40;;;;;;;12.42;84.96;95520.84;4285083;33;20216;-62
2022/11/01 04:01:55;;;;;;;1.37;0.93;;;;;;;12.36;85.09;95525.47;4293437;33;20259;-62
2022/11/01 04:04:20;;;;;;;12.93;1.30;;;;;;;12.32;84.31;95527.94;4319728;32;20181;-62
2022/11/01 04:06:46;;;;;;;0.63;0.63;;;;;;;12.32;85.60;95517.28;4311694;32;20223;-63
2022/11/01 04:09:13;;;;;;;0.40;0.40;;;;;;;12.52;84.41;95524.03;4318079;33;20217;-62
2022/11/01 04:11:38;;;;;;;0.97;0.97;;;;;;;12.54;83.41;95529.06;4307036;33;20241;-62
2022/11/01 04:22:21;;;;;;;0.93;0.93;;;;;;;12.58;82.57;95538.03;4309502;33;20204;-62
2022/11/01 04:24:48;;;;;;;6.03;0.70;;;;;;;12.45;83.42;95547.63;4294692;33;20178;-62
2022/11/01 04:27:17;;;;;;;1.70;1.60;;;;;;;12.53;83.00;95540.78;4285530;33;20236;-62
2022/11/01 04:29:44;;;;;;;3.80;1.60;;;;;;;12.50;83.24;95539.53;4319785;33;20189;-62
2022/11/01 04:32:12;;;;;;;1.43;1.33;;;;;;;12.39;83.96;95541.63;4312692;33;20275;-62
2022/11/01 04:34:44;;;;;;;4.60;1.30;;;;;;;12.35;84.09;95535.31;4294406;33;20272;-62
2022/11/01 04:37:13;;;;;;;1.73;1.63;;;;;;;12.48;84.12;95536.38;4294229;33;20261;-62
2022/11/01 04:39:40;;;;;;;0.90;0.90;;;;;;;12.55;84.02;95546.59;4304854;33;20311;-62
2022/11/01 04:42:06;;;;;;;2.50;0.80;;;;;;;12.46;83.86;95551.09;4309054;33;20253;-62
2022/11/01 04:44:34;;;;;;;3.23;1.20;;;;;;;12.53;82.55;95551.44;4333778;32;20189;-62
2022/11/01 04:47:01;;;;;;;2.60;1.53;;;;;;;12.50;82.91;95557.34;4337057;32;20207;-62
2022/11/01 04:49:28;;;;;;;1.37;1.27;;;;;;;12.39;83.17;95560.25;4345714;32;20223;-62
2022/11/01 04:51:54;;;;;;;0.83;0.83;;;;;;;12.26;83.70;95563.69;4342680;32;20185;-62
2022/11/01 04:54:20;;;;;;;1.03;1.00;;;;;;;12.20;84.32;95569.44;4343342;32;20178;-62
2022/11/01 04:56:45;;;;;;;0.80;0.80;;;;;;;12.22;83.88;95568.06;4325423;32;20189;-63
2022/11/01 04:59:11;;;;;;;0.73;0.73;;;;;;;12.28;83.35;95572.16;4344910;32;20209;-62
2022/11/01 05:01:37;;;;;;;0.73;0.73;;;;;;;12.25;82.91;95572.78;4329066;32;20189;-62
2022/11/01 05:04:04;;;;;;;1.00;0.90;;;;;;;12.23;83.50;95582.16;4337748;32;20260;-62
2022/11/01 05:06:30;;;;;;;1.07;1.07;;;;;;;12.11;84.10;95581.84;4317057;32;20185;-62
2022/11/01 05:08:56;;;;;;;0.80;0.80;;;;;;;12.30;83.20;95585.19;4278895;32;20292;-62
2022/11/01 05:11:24;;;;;;;0.80;0.80;;;;;;;12.21;84.19;95592.28;4332714;32;20173;-62
2022/11/01 05:13:51;;;;;;;0.87;0.87;;;;;;;12.28;83.57;95590.78;4335576;32;20201;-62
2022/11/01 05:16:18;;;;;;;0.50;0.50;;;;;;;12.16;82.99;95590.50;4337794;32;20189;-62
2022/11/01 05:18:45;;;;;;;0.53;0.53;;;;;;;12.25;83.69;95599.38;4324329;32;20229;-62
2022/11/01 05:21:11;;;;;;;0.70;0.70;;;;;;;12.27;82.56;95596.41;4319199;32;20198;-62
2022/11/01 05:23:38;;;;;;;0.70;0.70;;;;;;;12.24;82.49;95597.03;4356034;32;20264;-62
2022/11/01 05:26:03;;;;;;;0.97;0.97;;;;;;;12.20;83.39;95598.69;4345411;32;20240;-62
2022/11/01 05:28:29;;;;;;;0.90;0.90;;;;;;;12.15;83.76;95612.09;4326865;32;20208;-63
2022/11/01 05:31:00;;;;;;;3.97;0.93;;;;;;;12.16;84.45;95608.34;4344985;32;20240;-62
2022/11/01 05:33:26;;;;;;;1.60;1.17;;;;;;;12.20;83.82;95606.69;4336181;32;20353;-62
2022/11/01 05:35:52;;;;;;;1.50;1.40;;;;;;;12.19;84.38;95615.75;4318433;32;20279;-63
2022/11/01 05:38:17;;;;;;;1.73;1.10;;;;;;;12.29;83.29;95616.31;4306911;33;20190;-63
2022/11/01 05:40:42;;;;;;;4.33;1.47;;;;;;;12.25;83.94;95610.03;4304903;33;20201;-62
2022/11/01 05:43:09;;;;;;;1.17;0.93;;;;;;;12.35;82.55;95612.47;4311700;33;20181;-62
2022/11/01 05:45:36;;;;;;;0.70;0.70;;;;;;;12.43;81.71;95618.97;4312451;33;20289;-62
2022/11/01 05:48:05;;;;;;;2.87;1.73;;;;;;;12.48;81.52;95618.06;4301591;32;20200;-62
2022/11/01 05:50:31;;;;;;;1.50;1.40;;;;;;;12.36;81.87;95624.69;4316360;33;20186;-62
2022/11/01 05:53:07;;;;;;;0.93;0.93;;;;;;;12.41;81.18;95623.03;4264979;33;20269;-62
2022/11/01 05:55:38;;;;;;;1.40;1.27;;;;;;;12.45;80.86;95634.66;4317256;33;20207;-62
2022/11/01 05:58:05;;;;;;;1.07;1.07;;;;;;;12.49;80.10;95632.94;4308697;33;20277;-62
2022/11/01 06:00:34;;;;;;;1.70;1.23;;;;;;;12.44;79.64;95641.06;4306911;32;20194;-62
2022/11/01 06:03:01;;;;;;;0.87;0.87;;;;;;;12.40;79.88;95640.84;4315264;32;20190;-62
2022/11/01 06:05:29;;;;;;;1.40;1.30;;;;;;;12.42;79.52;95643.22;4317961;32;20189;-62
2022/11/01 06:07:56;;;;;;;0.30;0.30;;;;;;;12.33;80.99;95640.47;4250958;33;20182;-62
2022/11/01 06:10:24;;;;;;;0.50;0.50;;;;;;;12.44;79.44;95643.72;4292030;33;20201;-62
2022/11/01 06:12:51;;;;;;;1.77;0.90;;;;;;;12.41;78.94;95649.63;4301469;33;20257;-63
2022/11/01 06:15:16;;;;;;;0.80;0.80;;;;;;;12.44;77.84;95639.19;4327889;32;20219;-63
2022/11/01 06:17:44;;;;;;;1.00;1.00;;;;;;;12.55;77.78;95647.75;4326801;32;20186;-62
2022/11/01 06:20:10;;;;;;;1.63;1.33;;;;;;;12.56;77.43;95649.31;4308195;33;20186;-62
2022/11/01 06:22:37;;;;;;;1.37;1.27;;;;;;;12.50;78.21;95653.16;4311643;32;22965;-62
2022/11/01 06:25:07;;;;;;;0.97;0.83;;;;;;;12.60;77.50;95658.28;4297563;33;20177;-62
2022/11/01 06:27:33;;;;;;;1.13;1.13;;;;;;;12.35;77.88;95663.03;4299483;33;20212;-62
2022/11/01 06:30:01;;;;;;;1.40;1.33;;;;;;;12.33;78.57;95675.03;4327512;32;20186;-62
2022/11/01 06:32:26;;;;;;;1.20;1.10;;;;;;;12.52;78.43;95680.25;4319575;32;20317;-62
2022/11/01 06:34:54;;;;;;;1.33;1.33;;;;;;;12.43;78.77;95682.84;4330941;32;20190;-63
2022/11/01 06:37:21;;;;;;;0.67;0.67;;;;;;;12.57;78.04;95690.81;4319225;32;20205;-62
2022/11/01 06:39:47;;;;;;;0.47;0.47;;;;;;;12.69;77.38;95701.75;4317200;32;20268;-62
2022/11/01 06:42:13;;;;;;;0.67;0.50;;;;;;;12.65;77.28;95714.09;4315768;33;20195;-62
2022/11/01 06:44:40;;;;;;;0.50;0.50;;;;;;;12.39;76.83;95711.91;4323182;32;20356;-62
2022/11/01 06:47:13;;;;;;;1.93;1.10;;;;;;;12.46;76.50;95718.72;4327440;32;20311;-62
2022/11/01 06:49:39;;;;;;;1.57;1.43;;;;;;;12.44;76.80;95732.31;4329344;33;20257;-62
2022/11/01 06:52:05;;;;;;;0.73;0.73;;;;;;;12.31;76.90;95736.53;4318576;33;20200;-62
2022/11/01 06:54:33;;;;;;;0.80;0.80;;;;;;;12.38;77.55;95739.59;4314892;32;20207;-63
2022/11/01 06:56:58;;;;;;;0.60;0.60;;;;;;;12.53;77.01;95743.84;4317872;32;20206;-62
2022/11/01 06:59:25;;;;;;;1.53;0.73;;;;;;;12.48;77.34;95740.47;4321205;32;20204;-62
2022/11/01 07:01:53;;;;;;;1.70;1.07;;;;;;;12.53;78.14;95743.06;4315012;32;20189;-63
2022/11/01 07:04:20;;;;;;;1.20;1.13;;;;;;;12.66;78.11;95747.59;4293326;32;20201;-63
2022/11/01 07:06:46;;;;;;;0.47;0.47;;;;;;;12.71;77.57;95756.25;4324807;32;20192;-63
2022/11/01 07:09:12;;;;;;;2.33;1.50;;;;;;;12.84;76.97;95759.25;4329948;33;20190;-62
2022/11/01 07:11:38;;;;;;;0.93;0.87;;;;;;;12.95;76.69;95760.59;4312546;32;20232;-62
2022/11/01 07:14:05;;;;;;;0.50;0.50;;;;;;;12.91;77.95;95765.72;4302709;33;21784;-62
2022/11/01 07:16:32;;;;;;;1.70;1.07;;;;;;;12.91;77.62;95760.41;4274811;33;20195;-62
2022/11/01 07:18:59;;;;;;;0.60;0.60;;;;;;;12.99;77.30;95770.37;4317224;32;20189;-63
2022/11/01 07:21:29;;;;;;;0.83;0.73;;;;;;;13.05;77.99;95774.53;4329637;32;20177;-63
2022/11/01 07:24:06;;;;;;;1.17;0.90;;;;;;;13.11;78.26;95780.50;4330373;32;20191;-62
2022/11/01 07:26:33;;;;;;;2.73;0.80;;;;;;;13.20;77.89;95783.31;4302767;32;20181;-62
2022/11/01 07:28:59;;;;;;;0.50;0.50;;;;;;;13.19;79.02;95792.38;4306030;33;20216;-62
2022/11/01 07:31:25;;;;;;;0.57;0.57;;;;;;;13.24;78.98;95800.28;4278371;33;20183;-62
2022/11/01 07:33:52;;;;;;;0.90;0.90;;;;;;;13.26;79.62;95798.12;4310430;33;20340;-62
2022/11/01 07:36:22;;;;;;;0.60;0.60;;;;;;;13.28;78.54;95801.28;4319640;32;20216;-63
2022/11/01 07:38:54;;;;;;;0.70;0.70;;;;;;;13.28;79.17;95812.72;4311193;32;20239;-63
2022/11/01 07:41:21;;;;;;;1.00;1.00;;;;;;;13.33;79.03;95809.13;4315856;32;20186;-63
2022/11/01 07:43:48;;;;;;;1.43;0.77;;;;;;;13.33;79.21;95819.78;4329528;32;20232;-63
2022/11/01 07:46:16;;;;;;;1.00;0.67;;;;;;;13.36;78.94;95814.66;4328391;32;20194;-62
2022/11/01 07:48:43;;;;;;;2.23;0.90;;;;;;;13.36;78.35;95819.22;4340574;32;20195;-62
2022/11/01 07:51:12;;;;;;;0.57;0.57;;;;;;;13.43;78.99;95824.94;4342569;32;20186;-62
2022/11/01 07:53:39;;;;;;;0.90;0.90;;;;;;;13.41;79.96;95829.78;4292735;32;20262;-62
2022/11/01 07:56:06;;;;;;;0.97;0.97;;;;;;;13.49;79.79;95821.09;4312624;33;20272;-62
2022/11/01 07:58:34;;;;;;;6.40;1.67;;;;;;;13.49;79.91;95818.41;4347671;32;20208;-62
2022/11/01 08:01:09;;;;;;;0.57;0.57;;;;;;;13.54;79.81;95820.94;4340592;32;20287;-62
2022/11/01 08:03:36;;;;;;;1.17;1.17;;;;;;;13.59;80.02;95820.84;4293542;33;20207;-62
2022/11/01 08:06:06;;;;;;;1.93;1.60;;;;;;;13.70;80.11;95830.22;4322289;32;20302;-62
2022/11/01 08:08:32;;;;;;;1.20;1.03;;;;;;;13.76;80.15;95826.34;4324962;32;20225;-62
2022/11/01 08:11:02;;;;;;;0.93;0.93;;;;;;;13.94;78.94;95813.12;4328464;32;20204;-62
2022/11/01 08:13:29;;;;;;;1.23;1.23;;;;;;;14.13;78.66;95819.13;4351690;32;20203;-63
2022/11/01 08:16:02;;;;;;;0.57;0.57;;;;;;;14.24;78.06;95812.44;4350601;32;20189;-63
2022/11/01 08:18:30;;;;;;;0.97;0.97;;;;;;;14.41;78.26;95815.22;4344497;32;20189;-62
2022/11/01 08:20:58;;;;;;;1.17;0.87;;;;;;;14.56;77.35;95816.72;4331695;32;20182;-63
2022/11/01 08:23:26;;;;;;;2.73;1.60;;;;;;;14.61;77.89;95810.47;4314784;33;20199;-63
2022/11/01 08:25:52;;;;;;;2.00;1.87;;;;;;;14.71;78.12;95811.00;4326963;32;20181;-62
2022/11/01 08:28:19;;;;;;;1.20;1.10;;;;;;;14.85;77.28;95818.91;4325567;33;20194;-63
2022/11/01 08:30:49;;;;;;;5.07;1.33;;;;;;;14.92;78.18;95815.81;4329422;32;20174;-63
2022/11/01 08:33:16;;;;;;;1.30;1.07;;;;;;;14.91;77.52;95815.03;4341683;32;20233;-62
2022/11/01 08:35:42;;;;;;;0.63;0.63;;;;;;;14.93;77.84;95814.72;4316983;33;20212;-62
2022/11/01 08:38:09;;;;;;;1.63;1.53;;;;;;;14.92;78.06;95829.97;4306929;33;20277;-63
2022/11/01 08:40:36;;;;;;;1.03;1.03;;;;;;;14.96;78.34;95833.59;4315800;32;20307;-62
2022/11/01 08:43:03;;;;;;;2.27;1.47;;;;;;;14.97;78.31;95837.03;4329604;32;20233;-62
2022/11/01 08:45:29;;;;;;;0.80;0.80;;;;;;;14.96;78.13;95838.94;4304466;33;20236;-62
2022/11/01 08:48:10;;;;;;;0.83;0.83;;;;;;;14.93;78.93;95839.56;4329723;33;20217;-63
2022/11/01 08:50:37;;;;;;;1.27;1.27;;;;;;;14.96;79.10;95844.28;4334911;33;20244;-62
2022/11/01 08:53:09;;;;;;;3.90;1.27;;;;;;;14.90;78.29;95845.50;4332218;32;20268;-63
2022/11/01 08:55:36;;;;;;;1.27;1.17;;;;;;;14.90;79.23;95848.19;4344601;32;20277;-62
2022/11/01 08:58:04;;;;;;;1.10;1.10;;;;;;;14.90;79.68;95845.50;4308233;32;20190;-63
2022/11/01 09:00:29;;;;;;;1.23;1.23;;;;;;;14.89;79.46;95846.59;4340308;32;20308;-62
2022/11/01 09:02:56;;;;;;;1.13;1.13;;;;;;;14.89;79.24;95846.59;4349722;32;20189;-63
2022/11/01 09:05:23;;;;;;;1.67;1.57;;;;;;;14.94;80.06;95841.13;4303023;33;20198;-62
2022/11/01 09:07:55;;;;;;;3.60;1.13;;;;;;;15.00;79.09;95839.87;4332427;32;20185;-63
2022/11/01 09:10:24;;;;;;;1.40;1.30;;;;;;;15.05;78.80;95844.31;4328834;33;20185;-63
2022/11/01 09:12:52;;;;;;;2.10;1.53;;;;;;;15.11;79.15;95846.53;4318913;32;20268;-63
2022/11/01 09:15:19;;;;;;;1.27;1.23;;;;;;;15.15;78.60;95841.38;4314166;32;20284;-63
2022/11/01 09:17:44;;;;;;;1.00;1.00;;;;;;;15.22;78.22;95843.59;4330193;33;20277;-63
2022/11/01 09:20:10;;;;;;;1.70;0.93;;;;;;;15.27;78.01;95838.09;4305604;33;20190;-62
2022/11/01 09:22:37;;;;;;;2.43;2.17;;;;;;;15.30;78.03;95826.78;4293718;33;20195;-62
2022/11/01 09:25:04;;;;;;;1.17;1.17;;;;;;;15.33;78.06;95831.53;4334968;33;20196;-62
2022/11/01 09:27:32;;;;;;;2.17;1.23;;;;;;;15.35;78.05;95827.44;4331897;32;20215;-62
2022/11/01 09:29:59;;;;;;;1.00;1.00;;;;;;;15.36;78.38;95828.22;4314487;33;20189;-62
2022/11/01 09:32:30;;;;;;;0.80;0.80;;;;;;;15.38;78.30;95820.69;4331565;32;20260;-62
2022/11/01 09:34:56;;;;;;;8.40;1.57;;;;;;;15.39;78.53;95816.87;4332874;32;20225;-62
2022/11/01 09:37:24;;;;;;;1.10;1.10;;;;;;;15.37;79.24;95816.44;4330639;32;20189;-63
2022/11/01 09:39:50;;;;;;;3.80;1.97;;;;;;;15.38;79.21;95808.09;4345608;32;20206;-63
2022/11/01 09:42:33;;;;;;;1.43;1.27;;;;;;;15.45;79.05;95805.75;4325896;32;20190;-63
2022/11/01 09:45:07;;;;;;;2.83;1.77;;;;;;;15.48;78.56;95804.34;4321318;32;20200;-62
2022/11/01 09:47:36;;;;;;;0.67;0.67;;;;;;;15.47;78.15;95797.41;4324289;32;20173;-63
2022/11/01 09:50:33;;;;;;;1.30;1.23;;;;;;;15.51;78.08;95803.72;4316876;33;20225;-62
2022/11/01 09:53:26;;;;;;;4.20;1.23;;;;;;;15.52;78.15;95805.28;4321458;32;20216;-62
2022/11/01 09:56:12;;;;;;;1.53;1.43;;;;;;;15.55;78.58;95823.41;4305352;33;20205;-63
2022/11/01 09:59:06;;;;;;;4.50;1.23;;;;;;;15.55;78.82;95823.41;4324445;32;20293;-62
2022/11/01 10:02:25;;;;;;;0.90;0.90;;;;;;;15.60;78.70;95827.81;4325525;32;20178;-62
2022/11/01 10:05:39;;;;;;;0.77;0.77;;;;;;;15.68;78.32;95833.19;4307290;32;20313;-62
2022/11/01 10:08:37;;;;;;;1.10;1.10;;;;;;;15.75;79.11;95840.75;4319302;32;20326;-62
2022/11/01 10:11:05;;;;;;;2.20;1.10;;;;;;;15.79;78.90;95847.06;4296955;33;20194;-63
2022/11/01 10:14:14;;;;;;;1.40;1.30;;;;;;;15.76;78.90;95851.16;4307994;33;20182;-62
2022/11/01 10:17:10;;;;;;;10.80;1.50;;;;;;;15.76;79.39;95845.81;4294063;33;20272;-62
2022/11/01 10:19:36;;;;;;;4.70;1.73;;;;;;;15.82;79.24;95841.84;4325520;32;20186;-62
2022/11/01 10:22:10;;;;;;;0.60;0.60;;;;;;;15.82;79.50;95838.38;4328532;32;20212;-62
2022/11/01 10:24:52;;;;;;;2.93;1.83;;;;;;;15.87;79.57;95837.47;4301151;33;20193;-62
2022/11/01 10:27:33;;;;;;;0.80;0.80;;;;;;;15.86;78.99;95825.97;4319190;32;20189;-63
2022/11/01 10:30:11;;;;;;;0.60;0.60;;;;;;;15.97;78.66;95829.13;4308471;33;20185;-63
2022/11/01 10:33:04;;;;;;;1.40;1.30;;;;;;;15.99;78.46;95835.75;4319900;32;20415;-62
2022/11/01 10:35:39;;;;;;;0.87;0.87;;;;;;;16.18;77.00;95827.41;4319171;32;20190;-63
2022/11/01 10:38:13;;;;;;;1.00;1.00;;;;;;;16.17;77.67;95831.19;4304462;33;20359;-62
2022/11/01 10:40:46;;;;;;;1.43;1.27;;;;;;;16.22;77.07;95825.66;4321806;32;20200;-62
2022/11/01 10:43:15;;;;;;;0.73;0.73;;;;;;;16.25;77.47;95819.66;4271339;33;20181;-62
2022/11/01 10:45:50;;;;;;;4.43;1.03;;;;;;;16.35;77.23;95824.69;4315722;33;20197;-62
2022/11/01 10:48:46;;;;;;;3.27;0.93;;;;;;;16.38;76.52;95829.44;4313347;33;20199;-63
2022/11/01 10:51:19;;;;;;;5.10;0.70;;;;;;;16.37;76.99;95825.19;4298936;33;20193;-62
2022/11/01 10:53:52;;;;;;;0.20;0.20;;;;;;;16.49;75.95;95830.66;4304141;32;20182;-63
2022/11/01 10:56:25;;;;;;;0.50;0.50;;;;;;;16.55;76.02;95828.59;4320389;32;20261;-63
2022/11/01 10:59:12;;;;;;;1.87;0.90;;;;;;;16.63;75.35;95814.41;4303830;33;20277;-63
2022/11/01 11:02:00;;;;;;;2.13;1.13;;;;;;;16.67;74.88;95817.25;4282092;33;20190;-62
2022/11/01 11:04:27;;;;;;;0.80;0.80;;;;;;;16.70;74.66;95816.63;4283156;33;20190;-63
2022/11/01 11:06:56;;;;;;;1.90;1.40;;;;;;;16.71;74.67;95810.16;4290444;33;20200;-62
2022/11/01 11:09:31;;;;;;;4.07;0.97;;;;;;;16.76;73.51;95807.31;4287785;32;20181;-62
2022/11/01 11:12:34;;;;;;;0.80;0.80;;;;;;;16.76;72.95;95815.34;4260387;33;20225;-64
2022/11/01 11:15:30;;;;;;;0.40;0.40;;;;;;;16.78;73.49;95815.81;4314609;33;20189;-63
2022/11/01 11:18:02;;;;;;;5.03;1.20;;;;;;;16.78;73.08;95821.97;4306401;33;20182;-62
2022/11/01 11:20:30;;;;;;;0.30;0.30;;;;;;;16.69;73.91;95817.72;4285399;32;20186;-62
2022/11/01 11:23:01;;;;;;;0.83;0.83;;;;;;;16.73;73.64;95813.31;4281548;33;20230;-62
2022/11/01 11:25:37;;;;;;;0.53;0.53;;;;;;;16.72;72.96;95822.44;4304888;33;20236;-63
2022/11/01 11:28:04;;;;;;;1.13;1.13;;;;;;;16.72;73.17;95822.44;4302108;33;20264;-62
2022/11/01 11:30:34;;;;;;;0.70;0.70;;;;;;;16.70;73.98;95816.63;4309442;33;20197;-62
2022/11/01 11:33:10;;;;;;;1.17;0.97;;;;;;;16.75;72.38;95821.81;4315806;32;20182;-62
2022/11/01 11:35:44;;;;;;;0.40;0.40;;;;;;;16.83;73.02;95815.66;4334655;32;20355;-63
2022/11/01 11:38:14;;;;;;;0.73;0.53;;;;;;;16.85;73.22;95821.44;4316131;33;20181;-63
2022/11/01 11:40:44;;;;;;;8.10;0.70;;;;;;;16.82;72.80;95812.19;4294826;33;20174;-62
2022/11/01 11:43:26;;;;;;;4.70;1.63;;;;;;;16.80;73.30;95813.59;4307775;33;20191;-63
2022/11/01 11:46:17;;;;;;;1.23;0.83;;;;;;;16.83;73.06;95813.72;4344606;32;20185;-63
2022/11/01 11:48:58;;;;;;;1.60;1.50;;;;;;;16.83;73.04;95812.97;4314834;32;20200;-62
2022/11/01 11:51:30;;;;;;;0.83;0.53;;;;;;;16.93;71.72;95817.19;4312410;32;20173;-63
2022/11/01 11:54:14;;;;;;;0.77;0.77;;;;;;;16.91;72.83;95820.19;4302661;32;20182;-62
2022/11/01 11:56:45;;;;;;;0.87;0.87;;;;;;;16.86;73.06;95824.91;4327980;32;20193;-62
2022/11/01 11:59:34;;;;;;;0.80;0.80;;;;;;;16.91;72.12;95814.81;4348999;32;20212;-62
2022/11/01 12:02:26;;;;;;;0.60;0.60;;;;;;;16.82;73.29;95820.22;4319791;32;20199;-63
2022/11/01 12:04:56;;;;;;;0.17;0.17;;;;;;;16.83;72.84;95815.66;4321169;32;20216;-63
2022/11/01 12:07:36;;;;;;;0.43;0.37;;;;;;;16.84;72.54;95825.22;4344001;32;20181;-63